sensor_id;sensor_type;location;lat;lon;timestamp;temperature;humidity
49224;DHT22;35050;51.316;5.994;2023-04-03T00:00:04;5.30;99.90
49224;DHT22;35050;51.316;5.994;2023-04-03T00:02:30;5.20;99.90
49224;DHT22;35050;51.316;5.994;2023-04-03T00:04:56;5.20;99.90
49224;DHT22;35050;51.316;5.994;2023-04-03T00:07:22;5.20;99.90
49224;DHT22;35050;51.316;5.994;2023-04-03T00:09:47;5.20;99.90
49224;DHT22;35050;51.316;5.994;2023-04-03T00:12:13;5.20;99.90
49224;DHT22;35050;51.316;5.994;2023-04-03T00:14:39;5.00;99.90
49224;DHT22;35050;51.316;5.994;2023-04-03T00:17:04;5.00;99.90
49224;DHT22;35050;51.316;5.994;2023-04-03T00:19:30;5.00;99.90
49224;DHT22;35050;51.316;5.994;2023-04-03T00:21:56;5.00;99.90
49224;DHT22;35050;51.316;5.994;2023-04-03T00:24:21;5.10;99.90
49224;DHT22;35050;51.316;5.994;2023-04-03T00:26:47;5.00;99.90
49224;DHT22;35050;51.316;5.994;2023-04-03T00:29:13;4.90;99.90
49224;DHT22;35050;51.316;5.994;2023-04-03T00:31:38;4.80;99.90
49224;DHT22;35050;51.316;5.994;2023-04-03T00:34:04;4.80;99.90
49224;DHT22;35050;51.316;5.994;2023-04-03T00:36:30;4.80;99.90
49224;DHT22;35050;51.316;5.994;2023-04-03T00:38:55;4.80;99.90
49224;DHT22;35050;51.316;5.994;2023-04-03T00:41:21;4.80;99.90
49224;DHT22;35050;51.316;5.994;2023-04-03T00:43:47;4.80;99.90
49224;DHT22;35050;51.316;5.994;2023-04-03T00:46:12;4.80;99.90
49224;DHT22;35050;51.316;5.994;2023-04-03T00:48:43;4.70;99.90
49224;DHT22;35050;51.316;5.994;2023-04-03T00:51:17;4.80;99.90
49224;DHT22;35050;51.316;5.994;2023-04-03T00:53:52;4.80;99.90
49224;DHT22;35050;51.316;5.994;2023-04-03T00:56:22;4.80;99.90
49224;DHT22;35050;51.316;5.994;2023-04-03T00:58:59;4.80;99.90
49224;DHT22;35050;51.316;5.994;2023-04-03T01:01:26;4.70;99.90
49224;DHT22;35050;51.316;5.994;2023-04-03T01:03:52;4.70;99.90
49224;DHT22;35050;51.316;5.994;2023-04-03T01:06:23;4.80;99.90
49224;DHT22;35050;51.316;5.994;2023-04-03T01:08:50;4.70;99.90
49224;DHT22;35050;51.316;5.994;2023-04-03T01:11:16;4.80;99.90
49224;DHT22;35050;51.316;5.994;2023-04-03T01:13:42;4.70;99.90
49224;DHT22;35050;51.316;5.994;2023-04-03T01:16:08;4.70;99.90
49224;DHT22;35050;51.316;5.994;2023-04-03T01:18:38;4.60;99.90
49224;DHT22;35050;51.316;5.994;2023-04-03T01:26:35;4.60;99.90
49224;DHT22;35050;51.316;5.994;2023-04-03T01:29:01;4.60;99.90
49224;DHT22;35050;51.316;5.994;2023-04-03T01:31:52;4.50;99.90
49224;DHT22;35050;51.316;5.994;2023-04-03T01:34:19;4.40;99.90
49224;DHT22;35050;51.316;5.994;2023-04-03T01:36:45;4.40;99.90
49224;DHT22;35050;51.316;5.994;2023-04-03T01:39:11;4.40;99.90
49224;DHT22;35050;51.316;5.994;2023-04-03T01:41:37;4.40;99.90
49224;DHT22;35050;51.316;5.994;2023-04-03T01:44:03;4.50;99.90
49224;DHT22;35050;51.316;5.994;2023-04-03T01:46:29;4.40;99.90
49224;DHT22;35050;51.316;5.994;2023-04-03T01:48:54;4.40;99.90
49224;DHT22;35050;51.316;5.994;2023-04-03T01:51:21;4.40;99.90
49224;DHT22;35050;51.316;5.994;2023-04-03T01:53:46;4.40;99.90
49224;DHT22;35050;51.316;5.994;2023-04-03T01:56:12;4.40;99.90
49224;DHT22;35050;51.316;5.994;2023-04-03T01:58:37;4.40;99.90
49224;DHT22;35050;51.316;5.994;2023-04-03T02:01:03;4.30;99.90
49224;DHT22;35050;51.316;5.994;2023-04-03T02:03:29;4.30;99.90
49224;DHT22;35050;51.316;5.994;2023-04-03T02:05:56;4.10;99.90
49224;DHT22;35050;51.316;5.994;2023-04-03T02:08:22;4.20;99.90
49224;DHT22;35050;51.316;5.994;2023-04-03T02:10:48;4.30;99.90
49224;DHT22;35050;51.316;5.994;2023-04-03T02:13:15;4.20;99.90
49224;DHT22;35050;51.316;5.994;2023-04-03T02:15:41;4.20;99.90
49224;DHT22;35050;51.316;5.994;2023-04-03T02:18:07;4.10;99.90
49224;DHT22;35050;51.316;5.994;2023-04-03T02:20:33;4.20;99.90
49224;DHT22;35050;51.316;5.994;2023-04-03T02:22:59;4.20;99.90
49224;DHT22;35050;51.316;5.994;2023-04-03T02:25:25;4.20;99.90
49224;DHT22;35050;51.316;5.994;2023-04-03T02:27:51;4.10;99.90
49224;DHT22;35050;51.316;5.994;2023-04-03T02:30:17;4.20;99.90
49224;DHT22;35050;51.316;5.994;2023-04-03T02:32:43;4.20;99.90
49224;DHT22;35050;51.316;5.994;2023-04-03T02:35:10;4.10;99.90
49224;DHT22;35050;51.316;5.994;2023-04-03T02:37:37;4.10;99.90
49224;DHT22;35050;51.316;5.994;2023-04-03T02:40:03;4.00;99.90
49224;DHT22;35050;51.316;5.994;2023-04-03T02:42:29;4.10;99.90
49224;DHT22;35050;51.316;5.994;2023-04-03T02:44:55;4.10;99.90
49224;DHT22;35050;51.316;5.994;2023-04-03T02:47:21;4.10;99.90
49224;DHT22;35050;51.316;5.994;2023-04-03T02:49:46;4.20;99.90
49224;DHT22;35050;51.316;5.994;2023-04-03T02:52:13;4.10;99.90
49224;DHT22;35050;51.316;5.994;2023-04-03T02:54:39;4.20;99.90
49224;DHT22;35050;51.316;5.994;2023-04-03T02:57:04;4.10;99.90
49224;DHT22;35050;51.316;5.994;2023-04-03T02:59:30;4.10;99.90
49224;DHT22;35050;51.316;5.994;2023-04-03T03:01:56;4.00;99.90
49224;DHT22;35050;51.316;5.994;2023-04-03T03:04:22;4.00;99.90
49224;DHT22;35050;51.316;5.994;2023-04-03T03:06:48;4.00;99.90
49224;DHT22;35050;51.316;5.994;2023-04-03T03:09:13;4.10;99.90
49224;DHT22;35050;51.316;5.994;2023-04-03T03:11:40;4.00;99.90
49224;DHT22;35050;51.316;5.994;2023-04-03T03:14:05;3.90;99.90
49224;DHT22;35050;51.316;5.994;2023-04-03T03:16:31;3.90;99.90
49224;DHT22;35050;51.316;5.994;2023-04-03T03:18:57;3.80;99.90
49224;DHT22;35050;51.316;5.994;2023-04-03T03:21:22;3.90;99.90
49224;DHT22;35050;51.316;5.994;2023-04-03T03:23:48;4.00;99.90
49224;DHT22;35050;51.316;5.994;2023-04-03T03:26:14;3.90;99.90
49224;DHT22;35050;51.316;5.994;2023-04-03T03:28:40;4.00;99.90
49224;DHT22;35050;51.316;5.994;2023-04-03T03:31:06;4.00;99.90
49224;DHT22;35050;51.316;5.994;2023-04-03T03:33:32;4.00;99.90
49224;DHT22;35050;51.316;5.994;2023-04-03T03:35:58;3.90;99.90
49224;DHT22;35050;51.316;5.994;2023-04-03T03:38:24;4.00;99.90
49224;DHT22;35050;51.316;5.994;2023-04-03T03:40:51;4.00;99.90
49224;DHT22;35050;51.316;5.994;2023-04-03T03:43:17;4.00;99.90
49224;DHT22;35050;51.316;5.994;2023-04-03T03:45:43;4.00;99.90
49224;DHT22;35050;51.316;5.994;2023-04-03T03:48:09;4.00;99.90
49224;DHT22;35050;51.316;5.994;2023-04-03T03:50:35;3.90;99.90
49224;DHT22;35050;51.316;5.994;2023-04-03T03:53:00;4.00;99.90
49224;DHT22;35050;51.316;5.994;2023-04-03T03:55:26;3.90;99.90
49224;DHT22;35050;51.316;5.994;2023-04-03T03:57:52;4.00;99.90
49224;DHT22;35050;51.316;5.994;2023-04-03T04:00:18;4.00;99.90
49224;DHT22;35050;51.316;5.994;2023-04-03T04:02:44;4.00;99.90
49224;DHT22;35050;51.316;5.994;2023-04-03T04:05:10;4.00;99.90
49224;DHT22;35050;51.316;5.994;2023-04-03T04:07:35;4.10;99.90
49224;DHT22;35050;51.316;5.994;2023-04-03T04:10:02;4.00;99.90
49224;DHT22;35050;51.316;5.994;2023-04-03T04:12:27;4.00;99.90
49224;DHT22;35050;51.316;5.994;2023-04-03T04:14:53;4.00;99.90
49224;DHT22;35050;51.316;5.994;2023-04-03T04:17:19;4.00;99.90
49224;DHT22;35050;51.316;5.994;2023-04-03T04:19:45;3.90;99.90
49224;DHT22;35050;51.316;5.994;2023-04-03T04:22:10;3.90;99.90
49224;DHT22;35050;51.316;5.994;2023-04-03T04:24:36;4.00;99.90
49224;DHT22;35050;51.316;5.994;2023-04-03T04:27:02;4.00;99.90
49224;DHT22;35050;51.316;5.994;2023-04-03T04:29:28;4.00;99.90
49224;DHT22;35050;51.316;5.994;2023-04-03T04:31:54;3.90;99.90
49224;DHT22;35050;51.316;5.994;2023-04-03T04:34:19;3.80;99.90
49224;DHT22;35050;51.316;5.994;2023-04-03T04:36:45;3.80;99.90
49224;DHT22;35050;51.316;5.994;2023-04-03T04:39:11;3.80;99.90
49224;DHT22;35050;51.316;5.994;2023-04-03T04:41:36;3.70;99.90
49224;DHT22;35050;51.316;5.994;2023-04-03T04:44:02;3.70;99.90
49224;DHT22;35050;51.316;5.994;2023-04-03T04:46:28;3.70;99.90
49224;DHT22;35050;51.316;5.994;2023-04-03T04:48:53;3.80;99.90
49224;DHT22;35050;51.316;5.994;2023-04-03T04:51:19;3.80;99.90
49224;DHT22;35050;51.316;5.994;2023-04-03T04:53:45;3.80;99.90
49224;DHT22;35050;51.316;5.994;2023-04-03T04:56:11;3.70;99.90
49224;DHT22;35050;51.316;5.994;2023-04-03T04:58:37;3.70;99.90
49224;DHT22;35050;51.316;5.994;2023-04-03T05:01:06;3.80;99.90
49224;DHT22;35050;51.316;5.994;2023-04-03T05:03:32;3.60;99.90
49224;DHT22;35050;51.316;5.994;2023-04-03T05:05:58;3.60;99.90
49224;DHT22;35050;51.316;5.994;2023-04-03T05:08:24;3.70;99.90
49224;DHT22;35050;51.316;5.994;2023-04-03T05:10:50;3.70;99.90
49224;DHT22;35050;51.316;5.994;2023-04-03T05:13:16;3.60;99.90
49224;DHT22;35050;51.316;5.994;2023-04-03T05:15:42;3.60;99.90
49224;DHT22;35050;51.316;5.994;2023-04-03T05:18:08;3.60;99.90
49224;DHT22;35050;51.316;5.994;2023-04-03T05:20:34;3.50;99.90
49224;DHT22;35050;51.316;5.994;2023-04-03T05:23:00;3.50;99.90
49224;DHT22;35050;51.316;5.994;2023-04-03T05:25:26;3.60;99.90
49224;DHT22;35050;51.316;5.994;2023-04-03T05:27:52;3.60;99.90
49224;DHT22;35050;51.316;5.994;2023-04-03T05:30:17;3.60;99.90
49224;DHT22;35050;51.316;5.994;2023-04-03T05:32:43;3.70;99.90
49224;DHT22;35050;51.316;5.994;2023-04-03T05:35:10;3.70;99.90
49224;DHT22;35050;51.316;5.994;2023-04-03T05:37:36;3.70;99.90
49224;DHT22;35050;51.316;5.994;2023-04-03T05:40:06;3.60;99.90
49224;DHT22;35050;51.316;5.994;2023-04-03T05:42:32;3.60;99.90
49224;DHT22;35050;51.316;5.994;2023-04-03T05:44:58;3.80;99.90
49224;DHT22;35050;51.316;5.994;2023-04-03T05:47:24;3.80;99.90
49224;DHT22;35050;51.316;5.994;2023-04-03T05:49:49;3.80;99.90
49224;DHT22;35050;51.316;5.994;2023-04-03T05:52:23;4.70;99.90
49224;DHT22;35050;51.316;5.994;2023-04-03T05:54:50;4.20;99.90
49224;DHT22;35050;51.316;5.994;2023-04-03T05:57:16;4.10;99.90
49224;DHT22;35050;51.316;5.994;2023-04-03T05:59:46;3.80;99.90
49224;DHT22;35050;51.316;5.994;2023-04-03T06:02:20;3.90;99.90
49224;DHT22;35050;51.316;5.994;2023-04-03T06:04:46;3.80;99.90
49224;DHT22;35050;51.316;5.994;2023-04-03T06:07:18;3.90;99.90
49224;DHT22;35050;51.316;5.994;2023-04-03T06:09:46;3.80;99.90
49224;DHT22;35050;51.316;5.994;2023-04-03T06:12:12;3.80;99.90
49224;DHT22;35050;51.316;5.994;2023-04-03T06:14:38;3.70;99.90
49224;DHT22;35050;51.316;5.994;2023-04-03T06:17:04;3.80;99.90
49224;DHT22;35050;51.316;5.994;2023-04-03T06:19:30;3.90;99.90
49224;DHT22;35050;51.316;5.994;2023-04-03T06:21:56;3.80;99.90
49224;DHT22;35050;51.316;5.994;2023-04-03T06:24:22;3.80;99.90
49224;DHT22;35050;51.316;5.994;2023-04-03T06:26:49;3.90;99.90
49224;DHT22;35050;51.316;5.994;2023-04-03T06:29:17;3.80;99.90
49224;DHT22;35050;51.316;5.994;2023-04-03T06:31:43;3.70;99.90
49224;DHT22;35050;51.316;5.994;2023-04-03T06:34:09;3.90;99.90
49224;DHT22;35050;51.316;5.994;2023-04-03T06:36:38;3.90;99.90
49224;DHT22;35050;51.316;5.994;2023-04-03T06:39:04;3.80;99.90
49224;DHT22;35050;51.316;5.994;2023-04-03T06:41:30;3.90;99.90
49224;DHT22;35050;51.316;5.994;2023-04-03T06:43:56;4.20;99.90
49224;DHT22;35050;51.316;5.994;2023-04-03T06:46:25;4.00;99.90
49224;DHT22;35050;51.316;5.994;2023-04-03T06:48:50;4.20;99.90
49224;DHT22;35050;51.316;5.994;2023-04-03T06:51:27;4.30;99.90
49224;DHT22;35050;51.316;5.994;2023-04-03T06:53:55;4.30;99.90
49224;DHT22;35050;51.316;5.994;2023-04-03T06:56:22;4.30;99.90
49224;DHT22;35050;51.316;5.994;2023-04-03T06:58:48;4.50;99.90
49224;DHT22;35050;51.316;5.994;2023-04-03T07:01:16;4.60;99.90
49224;DHT22;35050;51.316;5.994;2023-04-03T07:03:43;4.30;99.90
49224;DHT22;35050;51.316;5.994;2023-04-03T07:06:11;4.30;99.90
49224;DHT22;35050;51.316;5.994;2023-04-03T07:08:37;4.40;99.90
49224;DHT22;35050;51.316;5.994;2023-04-03T07:11:04;4.60;99.90
49224;DHT22;35050;51.316;5.994;2023-04-03T07:13:30;4.60;99.90
49224;DHT22;35050;51.316;5.994;2023-04-03T07:15:56;4.60;99.90
49224;DHT22;35050;51.316;5.994;2023-04-03T07:18:22;4.80;99.90
49224;DHT22;35050;51.316;5.994;2023-04-03T07:20:48;4.90;99.90
49224;DHT22;35050;51.316;5.994;2023-04-03T07:23:14;4.80;99.90
49224;DHT22;35050;51.316;5.994;2023-04-03T07:25:46;4.90;99.90
49224;DHT22;35050;51.316;5.994;2023-04-03T07:28:13;5.10;99.90
49224;DHT22;35050;51.316;5.994;2023-04-03T07:30:45;5.10;99.90
49224;DHT22;35050;51.316;5.994;2023-04-03T07:33:13;5.30;99.90
49224;DHT22;35050;51.316;5.994;2023-04-03T07:35:40;5.30;99.90
49224;DHT22;35050;51.316;5.994;2023-04-03T07:38:06;5.50;99.90
49224;DHT22;35050;51.316;5.994;2023-04-03T07:40:33;5.70;99.90
49224;DHT22;35050;51.316;5.994;2023-04-03T07:42:58;5.60;99.90
49224;DHT22;35050;51.316;5.994;2023-04-03T07:45:25;5.60;99.90
49224;DHT22;35050;51.316;5.994;2023-04-03T07:47:51;5.80;99.90
49224;DHT22;35050;51.316;5.994;2023-04-03T07:50:17;5.80;99.90
49224;DHT22;35050;51.316;5.994;2023-04-03T07:52:43;6.10;99.90
49224;DHT22;35050;51.316;5.994;2023-04-03T07:55:09;6.00;99.90
49224;DHT22;35050;51.316;5.994;2023-04-03T07:57:34;6.30;99.90
49224;DHT22;35050;51.316;5.994;2023-04-03T08:00:01;6.50;99.90
49224;DHT22;35050;51.316;5.994;2023-04-03T08:02:26;6.60;99.90
49224;DHT22;35050;51.316;5.994;2023-04-03T08:04:52;6.70;99.90
49224;DHT22;35050;51.316;5.994;2023-04-03T08:07:18;6.80;99.90
49224;DHT22;35050;51.316;5.994;2023-04-03T08:09:43;8.40;99.90
49224;DHT22;35050;51.316;5.994;2023-04-03T08:12:10;8.80;99.90
49224;DHT22;35050;51.316;5.994;2023-04-03T08:14:36;7.60;99.90
49224;DHT22;35050;51.316;5.994;2023-04-03T08:17:02;7.20;99.90
49224;DHT22;35050;51.316;5.994;2023-04-03T08:19:30;7.10;99.90
49224;DHT22;35050;51.316;5.994;2023-04-03T08:21:56;7.20;99.90
49224;DHT22;35050;51.316;5.994;2023-04-03T08:24:24;7.50;99.90
49224;DHT22;35050;51.316;5.994;2023-04-03T08:26:50;7.30;99.90
49224;DHT22;35050;51.316;5.994;2023-04-03T08:29:16;7.60;99.90
49224;DHT22;35050;51.316;5.994;2023-04-03T08:31:41;7.80;99.90
49224;DHT22;35050;51.316;5.994;2023-04-03T08:34:08;7.90;99.90
49224;DHT22;35050;51.316;5.994;2023-04-03T08:36:34;7.90;99.90
49224;DHT22;35050;51.316;5.994;2023-04-03T08:38:59;8.00;99.90
49224;DHT22;35050;51.316;5.994;2023-04-03T08:41:43;8.20;99.90
49224;DHT22;35050;51.316;5.994;2023-04-03T08:46:54;8.40;99.90
49224;DHT22;35050;51.316;5.994;2023-04-03T08:54:57;8.70;99.90
49224;DHT22;35050;51.316;5.994;2023-04-03T08:57:36;8.80;99.90
49224;DHT22;35050;51.316;5.994;2023-04-03T09:00:17;8.80;99.90
49224;DHT22;35050;51.316;5.994;2023-04-03T09:02:55;8.80;99.90
49224;DHT22;35050;51.316;5.994;2023-04-03T09:08:40;9.40;99.90
49224;DHT22;35050;51.316;5.994;2023-04-03T09:16:36;9.40;99.90
49224;DHT22;35050;51.316;5.994;2023-04-03T09:19:18;9.70;98.70
49224;DHT22;35050;51.316;5.994;2023-04-03T09:21:46;10.00;97.50
49224;DHT22;35050;51.316;5.994;2023-04-03T09:24:14;9.90;96.60
49224;DHT22;35050;51.316;5.994;2023-04-03T09:26:56;10.60;96.90
49224;DHT22;35050;51.316;5.994;2023-04-03T09:29:25;10.60;96.00
49224;DHT22;35050;51.316;5.994;2023-04-03T09:32:00;11.00;95.20
49224;DHT22;35050;51.316;5.994;2023-04-03T09:34:32;10.90;93.50
49224;DHT22;35050;51.316;5.994;2023-04-03T09:37:02;10.40;93.90
49224;DHT22;35050;51.316;5.994;2023-04-03T09:39:32;11.10;94.70
49224;DHT22;35050;51.316;5.994;2023-04-03T09:42:14;11.30;96.20
49224;DHT22;35050;51.316;5.994;2023-04-03T09:44:42;11.10;93.90
49224;DHT22;35050;51.316;5.994;2023-04-03T09:47:23;11.60;92.70
49224;DHT22;35050;51.316;5.994;2023-04-03T09:49:49;11.40;92.40
49224;DHT22;35050;51.316;5.994;2023-04-03T09:52:26;11.60;91.80
49224;DHT22;35050;51.316;5.994;2023-04-03T09:54:52;11.30;90.70
49224;DHT22;35050;51.316;5.994;2023-04-03T09:57:18;11.80;91.50
49224;DHT22;35050;51.316;5.994;2023-04-03T10:00:00;11.40;87.20
49224;DHT22;35050;51.316;5.994;2023-04-03T10:02:40;11.30;90.10
49224;DHT22;35050;51.316;5.994;2023-04-03T10:07:51;11.70;88.60
49224;DHT22;35050;51.316;5.994;2023-04-03T10:10:20;12.20;85.80
49224;DHT22;35050;51.316;5.994;2023-04-03T10:12:54;11.80;87.20
49224;DHT22;35050;51.316;5.994;2023-04-03T10:15:28;11.20;80.10
49224;DHT22;35050;51.316;5.994;2023-04-03T10:18:02;11.70;82.00
49224;DHT22;35050;51.316;5.994;2023-04-03T10:34:11;12.60;69.30
49224;DHT22;35050;51.316;5.994;2023-04-03T10:39:48;13.10;71.40
49224;DHT22;35050;51.316;5.994;2023-04-03T10:45:19;12.90;67.60
49224;DHT22;35050;51.316;5.994;2023-04-03T10:48:23;12.50;68.40
49224;DHT22;35050;51.316;5.994;2023-04-03T10:53:53;12.70;66.80
49224;DHT22;35050;51.316;5.994;2023-04-03T10:56:39;12.60;68.30
49224;DHT22;35050;51.316;5.994;2023-04-03T10:59:21;13.40;68.60
49224;DHT22;35050;51.316;5.994;2023-04-03T11:01:52;13.00;67.30
49224;DHT22;35050;51.316;5.994;2023-04-03T11:04:20;12.50;65.40
49224;DHT22;35050;51.316;5.994;2023-04-03T11:06:49;12.90;69.30
49224;DHT22;35050;51.316;5.994;2023-04-03T11:09:30;13.00;67.10
49224;DHT22;35050;51.316;5.994;2023-04-03T11:14:38;12.50;65.50
49224;DHT22;35050;51.316;5.994;2023-04-03T11:17:05;13.00;67.60
49224;DHT22;35050;51.316;5.994;2023-04-03T11:27:43;13.50;67.00
49224;DHT22;35050;51.316;5.994;2023-04-03T11:35:51;14.30;68.50
49224;DHT22;35050;51.316;5.994;2023-04-03T11:38:25;14.00;63.60
49224;DHT22;35050;51.316;5.994;2023-04-03T11:40:53;12.60;62.70
49224;DHT22;35050;51.316;5.994;2023-04-03T11:46:06;13.80;65.40
49224;DHT22;35050;51.316;5.994;2023-04-03T11:51:01;14.50;66.40
49224;DHT22;35050;51.316;5.994;2023-04-03T11:53:37;14.40;63.10
49224;DHT22;35050;51.316;5.994;2023-04-03T11:56:27;13.70;61.90
49224;DHT22;35050;51.316;5.994;2023-04-03T12:01:47;14.20;63.40
49224;DHT22;35050;51.316;5.994;2023-04-03T12:04:15;14.90;64.80
49224;DHT22;35050;51.316;5.994;2023-04-03T12:06:42;14.40;62.90
49224;DHT22;35050;51.316;5.994;2023-04-03T12:12:00;15.00;65.50
49224;DHT22;35050;51.316;5.994;2023-04-03T12:14:28;15.20;64.20
49224;DHT22;35050;51.316;5.994;2023-04-03T12:16:55;14.30;63.90
49224;DHT22;35050;51.316;5.994;2023-04-03T12:19:39;15.10;63.60
49224;DHT22;35050;51.316;5.994;2023-04-03T12:22:15;14.70;63.10
49224;DHT22;35050;51.316;5.994;2023-04-03T12:24:46;14.00;60.90
49224;DHT22;35050;51.316;5.994;2023-04-03T12:46:51;15.40;62.30
49224;DHT22;35050;51.316;5.994;2023-04-03T12:51:55;15.20;61.90
49224;DHT22;35050;51.316;5.994;2023-04-03T12:54:30;15.80;62.00
49224;DHT22;35050;51.316;5.994;2023-04-03T12:57:33;16.30;65.10
49224;DHT22;35050;51.316;5.994;2023-04-03T12:59:59;17.10;61.70
49224;DHT22;35050;51.316;5.994;2023-04-03T13:02:30;16.50;62.00
49224;DHT22;35050;51.316;5.994;2023-04-03T13:04:58;14.80;61.30
49224;DHT22;35050;51.316;5.994;2023-04-03T13:07:31;15.70;63.70
49224;DHT22;35050;51.316;5.994;2023-04-03T13:10:19;15.60;62.70
49224;DHT22;35050;51.316;5.994;2023-04-03T13:12:56;16.00;62.00
49224;DHT22;35050;51.316;5.994;2023-04-03T13:15:30;15.70;62.70
49224;DHT22;35050;51.316;5.994;2023-04-03T13:18:05;15.80;62.50
49224;DHT22;35050;51.316;5.994;2023-04-03T13:20:34;16.50;62.70
49224;DHT22;35050;51.316;5.994;2023-04-03T13:23:06;16.50;63.10
49224;DHT22;35050;51.316;5.994;2023-04-03T13:25:35;15.50;63.60
49224;DHT22;35050;51.316;5.994;2023-04-03T13:28:04;15.30;63.90
49224;DHT22;35050;51.316;5.994;2023-04-03T13:30:35;15.20;64.30
49224;DHT22;35050;51.316;5.994;2023-04-03T13:33:05;15.20;64.10
49224;DHT22;35050;51.316;5.994;2023-04-03T13:35:38;16.10;64.60
49224;DHT22;35050;51.316;5.994;2023-04-03T13:43:26;16.00;62.70
49224;DHT22;35050;51.316;5.994;2023-04-03T13:46:03;15.40;59.10
49224;DHT22;35050;51.316;5.994;2023-04-03T13:48:41;15.50;61.50
49224;DHT22;35050;51.316;5.994;2023-04-03T13:56:19;16.70;62.10
49224;DHT22;35050;51.316;5.994;2023-04-03T14:01:24;15.70;58.70
49224;DHT22;35050;51.316;5.994;2023-04-03T14:03:59;16.00;61.30
49224;DHT22;35050;51.316;5.994;2023-04-03T14:06:26;16.90;63.10
49224;DHT22;35050;51.316;5.994;2023-04-03T14:08:52;15.80;60.30
49224;DHT22;35050;51.316;5.994;2023-04-03T14:11:26;14.90;59.20
49224;DHT22;35050;51.316;5.994;2023-04-03T14:13:53;15.90;63.50
49224;DHT22;35050;51.316;5.994;2023-04-03T14:16:23;15.60;61.40
49224;DHT22;35050;51.316;5.994;2023-04-03T14:18:50;16.30;62.50
49224;DHT22;35050;51.316;5.994;2023-04-03T14:21:18;15.60;61.30
49224;DHT22;35050;51.316;5.994;2023-04-03T14:23:44;15.90;61.30
49224;DHT22;35050;51.316;5.994;2023-04-03T14:26:16;15.50;60.40
49224;DHT22;35050;51.316;5.994;2023-04-03T14:28:44;15.60;61.50
49224;DHT22;35050;51.316;5.994;2023-04-03T14:31:11;14.80;62.60
49224;DHT22;35050;51.316;5.994;2023-04-03T14:33:38;16.20;62.60
49224;DHT22;35050;51.316;5.994;2023-04-03T14:36:30;16.60;61.20
49224;DHT22;35050;51.316;5.994;2023-04-03T14:38:57;16.40;60.50
49224;DHT22;35050;51.316;5.994;2023-04-03T14:41:25;16.30;60.90
49224;DHT22;35050;51.316;5.994;2023-04-03T14:43:51;15.80;60.80
49224;DHT22;35050;51.316;5.994;2023-04-03T14:46:30;16.10;61.20
49224;DHT22;35050;51.316;5.994;2023-04-03T14:48:57;15.60;60.40
49224;DHT22;35050;51.316;5.994;2023-04-03T14:51:23;15.50;60.20
49224;DHT22;35050;51.316;5.994;2023-04-03T14:53:50;15.50;61.90
49224;DHT22;35050;51.316;5.994;2023-04-03T14:56:25;15.50;61.10
49224;DHT22;35050;51.316;5.994;2023-04-03T14:58:59;14.90;61.10
49224;DHT22;35050;51.316;5.994;2023-04-03T15:01:27;15.30;62.70
49224;DHT22;35050;51.316;5.994;2023-04-03T15:03:53;15.60;62.40
49224;DHT22;35050;51.316;5.994;2023-04-03T15:06:19;15.80;59.40
49224;DHT22;35050;51.316;5.994;2023-04-03T15:08:46;15.50;59.60
49224;DHT22;35050;51.316;5.994;2023-04-03T15:11:13;15.70;59.90
49224;DHT22;35050;51.316;5.994;2023-04-03T15:13:39;15.80;60.50
49224;DHT22;35050;51.316;5.994;2023-04-03T15:16:10;15.70;61.80
49224;DHT22;35050;51.316;5.994;2023-04-03T15:18:38;14.80;59.80
49224;DHT22;35050;51.316;5.994;2023-04-03T15:21:04;14.70;60.60
49224;DHT22;35050;51.316;5.994;2023-04-03T15:23:30;14.50;62.80
49224;DHT22;35050;51.316;5.994;2023-04-03T15:25:56;14.70;65.10
49224;DHT22;35050;51.316;5.994;2023-04-03T15:30:54;16.30;64.10
49224;DHT22;35050;51.316;5.994;2023-04-03T15:33:20;15.10;61.20
49224;DHT22;35050;51.316;5.994;2023-04-03T15:35:47;14.50;60.20
49224;DHT22;35050;51.316;5.994;2023-04-03T15:38:13;14.20;60.40
49224;DHT22;35050;51.316;5.994;2023-04-03T15:40:39;13.60;63.00
49224;DHT22;35050;51.316;5.994;2023-04-03T15:43:06;14.10;61.80
49224;DHT22;35050;51.316;5.994;2023-04-03T15:45:33;14.30;61.70
49224;DHT22;35050;51.316;5.994;2023-04-03T15:47:59;13.70;61.70
49224;DHT22;35050;51.316;5.994;2023-04-03T15:50:25;13.40;61.50
49224;DHT22;35050;51.316;5.994;2023-04-03T15:52:52;13.70;62.70
49224;DHT22;35050;51.316;5.994;2023-04-03T15:55:25;13.90;62.20
49224;DHT22;35050;51.316;5.994;2023-04-03T15:57:52;14.30;63.40
49224;DHT22;35050;51.316;5.994;2023-04-03T16:00:18;15.00;62.20
49224;DHT22;35050;51.316;5.994;2023-04-03T16:02:46;14.80;62.90
49224;DHT22;35050;51.316;5.994;2023-04-03T16:05:13;13.70;62.60
49224;DHT22;35050;51.316;5.994;2023-04-03T16:07:40;13.50;63.30
49224;DHT22;35050;51.316;5.994;2023-04-03T16:10:08;14.50;64.90
49224;DHT22;35050;51.316;5.994;2023-04-03T16:12:35;14.80;64.50
49224;DHT22;35050;51.316;5.994;2023-04-03T16:15:00;14.50;63.60
49224;DHT22;35050;51.316;5.994;2023-04-03T16:17:27;14.20;64.60
49224;DHT22;35050;51.316;5.994;2023-04-03T16:19:54;13.50;64.00
49224;DHT22;35050;51.316;5.994;2023-04-03T16:22:21;13.40;66.30
49224;DHT22;35050;51.316;5.994;2023-04-03T16:24:47;13.60;65.50
49224;DHT22;35050;51.316;5.994;2023-04-03T16:27:13;13.80;66.10
49224;DHT22;35050;51.316;5.994;2023-04-03T16:29:38;13.70;65.80
49224;DHT22;35050;51.316;5.994;2023-04-03T16:32:04;13.80;66.90
49224;DHT22;35050;51.316;5.994;2023-04-03T16:34:30;13.60;66.50
49224;DHT22;35050;51.316;5.994;2023-04-03T16:36:57;13.60;66.80
49224;DHT22;35050;51.316;5.994;2023-04-03T16:39:23;13.20;65.30
49224;DHT22;35050;51.316;5.994;2023-04-03T16:41:48;12.70;66.40
49224;DHT22;35050;51.316;5.994;2023-04-03T16:44:14;12.40;67.20
49224;DHT22;35050;51.316;5.994;2023-04-03T16:46:40;13.00;68.10
49224;DHT22;35050;51.316;5.994;2023-04-03T16:49:06;13.40;67.50
49224;DHT22;35050;51.316;5.994;2023-04-03T16:51:31;12.70;66.30
49224;DHT22;35050;51.316;5.994;2023-04-03T16:53:57;12.50;67.20
49224;DHT22;35050;51.316;5.994;2023-04-03T16:56:24;12.20;68.10
49224;DHT22;35050;51.316;5.994;2023-04-03T16:58:50;12.00;66.90
49224;DHT22;35050;51.316;5.994;2023-04-03T17:01:18;12.00;69.30
49224;DHT22;35050;51.316;5.994;2023-04-03T17:03:44;12.30;69.20
49224;DHT22;35050;51.316;5.994;2023-04-03T17:06:12;12.20;67.60
49224;DHT22;35050;51.316;5.994;2023-04-03T17:08:42;12.50;67.90
49224;DHT22;35050;51.316;5.994;2023-04-03T17:11:08;12.80;68.20
49224;DHT22;35050;51.316;5.994;2023-04-03T17:13:34;12.30;68.50
49224;DHT22;35050;51.316;5.994;2023-04-03T17:16:01;12.30;69.10
49224;DHT22;35050;51.316;5.994;2023-04-03T17:18:30;12.30;69.50
49224;DHT22;35050;51.316;5.994;2023-04-03T17:20:56;12.20;69.30
49224;DHT22;35050;51.316;5.994;2023-04-03T17:23:24;11.90;68.50
49224;DHT22;35050;51.316;5.994;2023-04-03T17:25:50;12.00;69.90
49224;DHT22;35050;51.316;5.994;2023-04-03T17:28:15;11.40;68.90
49224;DHT22;35050;51.316;5.994;2023-04-03T17:30:41;11.40;69.70
49224;DHT22;35050;51.316;5.994;2023-04-03T17:33:07;11.20;70.50
49224;DHT22;35050;51.316;5.994;2023-04-03T17:35:32;11.00;70.50
49224;DHT22;35050;51.316;5.994;2023-04-03T17:37:58;11.50;70.60